Time;durP1;ratioP1;P1;durP2;ratioP2;P2;SDS_P1;SDS_P2;PMS_P1;PMS_P2;Temp;Humidity;BMP_temperature;BMP_pressure;BME280_temperature;BME280_humidity;BME280_pressure;Samples;Min_cycle;Max_cycle;Signal;HPM_P1;HPM_P2
2023/06/20 00:01:55;;;;;;;18.40;14.57;;;;;;;;;;5044849;28;20025;-78
2023/06/20 00:04:21;;;;;;;17.45;14.32;;;;;;;;;;5033965;28;20032;-77
2023/06/20 00:06:47;;;;;;;16.98;14.02;;;;;;;;;;5042796;28;20103;-78
2023/06/20 00:09:13;;;;;;;17.70;14.20;;;;;;;;;;5052732;28;20020;-79
2023/06/20 00:11:39;;;;;;;17.42;14.75;;;;;;;;;;5041422;28;20122;-79
2023/06/20 00:14:05;;;;;;;17.58;13.85;;;;;;;;;;5034113;28;20029;-78
2023/06/20 00:16:31;;;;;;;17.27;14.40;;;;;;;;;;5023160;28;20441;-78
2023/06/20 00:18:58;;;;;;;19.58;14.60;;;;;;;;;;5015161;28;20048;-78
2023/06/20 00:21:25;;;;;;;18.55;14.68;;;589.00;2432.00;;;;;;5054653;28;20147;-78
2023/06/20 00:23:52;;;;;;;17.70;14.73;;;588.90;2432.00;;;;;;5040971;28;20017;-78
2023/06/20 00:26:19;;;;;;;20.70;14.82;;;588.90;2432.00;;;;;;5053806;28;20043;-78
2023/06/20 00:28:44;;;;;;;17.75;14.45;;;589.00;2432.00;;;;;;5032134;28;20033;-78
2023/06/20 00:31:10;;;;;;;17.67;14.50;;;588.80;2432.00;;;;;;5032586;28;20045;-79
2023/06/20 00:33:36;;;;;;;17.50;14.38;;;588.80;2432.00;;;;;;5013500;28;20022;-79
2023/06/20 00:36:02;;;;;;;17.88;14.65;;;564.10;2176.00;;;;;;5013616;28;20060;-78
2023/06/20 00:38:29;;;;;;;20.48;15.25;;;564.10;2252.80;;;;;;5028862;28;20029;-77
2023/06/20 00:40:55;;;;;;;23.08;15.48;;;564.00;2432.00;;;;;;5032933;28;20021;-77
2023/06/20 00:43:21;;;;;;;17.30;14.80;;;564.00;2432.00;;;;;;5031914;28;20030;-79
2023/06/20 00:45:47;;;;;;;17.77;14.40;;;564.00;2432.00;;;;;;5042967;28;20466;-79
2023/06/20 00:48:13;;;;;;;17.00;15.20;;;564.00;2432.00;;;;;;5050930;28;20017;-79
2023/06/20 00:50:38;;;;;;;18.13;14.82;;;563.90;2432.00;;;;;;5030473;28;20438;-78
2023/06/20 00:53:06;;;;;;;20.58;15.15;;;563.90;2432.00;;;;;;5043481;28;20044;-78
2023/06/20 00:55:33;;;;;;;19.60;14.57;;;563.90;2432.00;;;;;;5037608;28;20416;-79
2023/06/20 00:58:01;;;;;;;16.35;13.88;;;563.90;2432.00;;;;;;5038657;28;20029;-78
2023/06/20 01:00:29;;;;;;;17.45;13.68;;;563.90;2432.00;;;;;;5040115;28;20082;-79
2023/06/20 01:03:01;;;;;;;18.15;13.63;;;564.10;2432.00;;;;;;5044496;28;20112;-78
2023/06/20 01:05:28;;;;;;;17.10;13.55;;;563.80;2432.00;;;;;;5039745;28;20052;-78
2023/06/20 01:07:59;;;;;;;15.07;12.63;;;563.70;2432.00;;;;;;5043891;28;20056;-79
2023/06/20 01:10:43;;;;;;;16.30;13.20;;;563.70;2432.00;;;;;;5050579;28;20108;-79
2023/06/20 01:13:14;;;;;;;15.70;13.23;;;563.90;2432.00;;;;;;5049159;28;20029;-78
2023/06/20 01:15:54;;;;;;;17.23;13.88;;;563.70;2432.00;;;;;;5049604;28;20441;-78
2023/06/20 01:18:47;;;;;;;17.55;13.75;;;563.80;2432.00;;;;;;5050449;28;20102;-78
2023/06/20 01:21:17;;;;;;;22.30;13.10;;;563.70;2432.00;;;;;;5034665;28;20026;-77
2023/06/20 01:24:09;;;;;;;19.58;13.93;;;563.70;2432.00;;;;;;5026450;28;20091;-78
2023/06/20 01:27:12;;;;;;;17.70;13.95;;;563.70;2432.00;;;;;;5049481;28;20383;-79
2023/06/20 01:29:57;;;;;;;19.10;14.50;;;563.60;2432.00;;;;;;5050357;28;20032;-79
2023/06/20 01:32:25;;;;;;;19.85;15.18;;;563.60;2432.00;;;;;;5043188;28;20030;-78
2023/06/20 01:35:10;;;;;;;18.45;15.18;;;563.50;2432.00;;;;;;5031888;28;20127;-79
2023/06/20 01:37:40;;;;;;;16.67;14.70;;;563.70;2150.40;;;;;;5031501;28;20029;-79
2023/06/20 01:40:08;;;;;;;18.17;15.02;;;563.50;2432.00;;;;;;5025076;28;20025;-79
2023/06/20 01:42:35;;;;;;;16.50;14.20;;;563.40;2432.00;;;;;;5041985;28;20486;-79
2023/06/20 01:45:05;;;;;;;17.60;14.07;;;563.40;2432.00;;;;;;5026056;28;20101;-79
2023/06/20 01:47:34;;;;;;;19.63;15.40;;;563.40;2432.00;;;;;;5013909;28;20037;-79
2023/06/20 01:50:01;;;;;;;18.60;14.65;;;563.40;2406.40;;;;;;5031466;28;20045;-79
2023/06/20 01:52:29;;;;;;;17.92;15.48;;;563.30;2432.00;;;;;;5043046;28;20091;-78
2023/06/20 01:54:57;;;;;;;18.80;15.07;;;563.30;2406.40;;;;;;5049406;28;20043;-77
2023/06/20 01:57:24;;;;;;;20.73;15.82;;;;;;;;;;5032198;28;20943;-78
2023/06/20 01:59:51;;;;;;;20.58;15.35;;;;;;;;;;5039480;28;20537;-78
2023/06/20 02:02:18;;;;;;;20.45;15.80;;;;;;;;;;5034038;28;20486;-77
2023/06/20 02:04:45;;;;;;;18.25;15.00;;;;;;;;;;5048699;28;20044;-77
2023/06/20 02:07:11;;;;;;;18.33;15.52;;;;;;;;;;5050172;28;20025;-78
2023/06/20 02:09:38;;;;;;;18.65;15.55;;;;;;;;;;5050048;28;20082;-78
2023/06/20 02:12:06;;;;;;;22.30;15.93;;;;;;;;;;5050031;28;20025;-78
2023/06/20 02:14:32;;;;;;;18.00;15.35;;;;;;;;;;5044156;28;20021;-79
2023/06/20 02:17:00;;;;;;;19.23;14.63;;;;;;;;;;5025726;28;20051;-78
2023/06/20 02:19:26;;;;;;;19.27;15.02;;;;;;;;;;5041146;28;20017;-78
2023/06/20 02:21:54;;;;;;;17.27;15.10;;;;;;;;;;5049963;28;20017;-77
2023/06/20 02:24:22;;;;;;;20.13;14.95;;;563.20;2432.00;;;;;;5033032;28;20022;-78
2023/06/20 02:26:51;;;;;;;20.17;15.27;;;538.30;2406.40;;;;;;5031037;28;20022;-77
2023/06/20 02:29:17;;;;;;;17.45;15.13;;;538.40;2406.40;;;;;;5031190;28;20022;-78
2023/06/20 02:31:47;;;;;;;20.52;15.18;;;538.30;2406.40;;;;;;5034236;28;20094;-77
2023/06/20 02:34:14;;;;;;;21.08;15.27;;;;;;;;;;5025926;28;20040;-77
2023/06/20 02:36:42;;;;;;;18.85;15.38;;;;;;;;;;5030941;28;20029;-77
2023/06/20 02:39:08;;;;;;;17.05;14.52;;;;;;;;;;5043107;28;20122;-77
2023/06/20 02:41:34;;;;;;;18.50;15.02;;;;;;;;;;5031103;28;20025;-78
2023/06/20 02:44:00;;;;;;;20.98;15.30;;;;;;;;;;5030714;28;20067;-77
2023/06/20 02:46:47;;;;;;;19.60;14.93;;;;;;;;;;5030903;28;20577;-77
2023/06/20 02:49:13;;;;;;;20.52;15.27;;;;;;;;;;5009338;28;20022;-78
2023/06/20 02:51:45;;;;;;;17.80;14.48;;;;;;;;;;5010368;28;20041;-78
2023/06/20 02:54:20;;;;;;;21.48;15.02;;;;;;;;;;4994630;28;20049;-79
2023/06/20 02:56:50;;;;;;;19.13;15.30;;;;;;;;;;5028767;28;20036;-77
2023/06/20 02:59:17;;;;;;;19.20;15.27;;;;;;;;;;5031484;28;20024;-79
2023/06/20 03:01:47;;;;;;;18.73;15.13;;;;;;;;;;5031099;28;20025;-78
2023/06/20 03:04:14;;;;;;;19.52;14.90;;;538.30;2406.40;;;;;;5021010;28;20026;-77
2023/06/20 03:06:43;;;;;;;17.63;14.77;;;537.90;2406.40;;;;;;5010166;28;20543;-77
2023/06/20 03:09:10;;;;;;;18.90;14.98;;;537.90;2406.40;;;;;;5027475;28;20026;-78
2023/06/20 03:11:36;;;;;;;18.10;15.75;;;537.90;2406.40;;;;;;5012562;28;20145;-78
2023/06/20 03:14:03;;;;;;;19.67;14.35;;;537.90;2406.40;;;;;;5016428;28;20022;-77
2023/06/20 03:16:30;;;;;;;21.77;15.52;;;537.80;2406.40;;;;;;5012465;28;20044;-78
2023/06/20 03:18:56;;;;;;;20.60;15.77;;;537.80;2406.40;;;;;;4995870;28;20021;-78
2023/06/20 03:21:23;;;;;;;17.63;14.60;;;537.80;2406.40;;;;;;5012240;28;20570;-78
2023/06/20 03:23:49;;;;;;;17.77;14.05;;;537.80;2406.40;;;;;;5009054;28;20036;-78
2023/06/20 03:26:14;;;;;;;19.30;14.52;;;537.80;2406.40;;;;;;5022290;28;20041;-78
2023/06/20 03:28:40;;;;;;;16.83;14.85;;;537.80;2406.40;;;;;;5033953;28;20100;-78
2023/06/20 03:31:06;;;;;;;17.75;14.45;;;537.80;2406.40;;;;;;5034839;28;20029;-77
2023/06/20 03:33:32;;;;;;;18.35;14.35;;;537.80;2406.40;;;;;;5036340;28;20017;-77
2023/06/20 03:35:57;;;;;;;17.73;14.63;;;537.80;2406.40;;;;;;5045676;28;20026;-78
2023/06/20 03:38:23;;;;;;;17.00;13.98;;;537.80;2406.40;;;;;;5031854;28;20038;-78
2023/06/20 03:40:51;;;;;;;16.60;14.02;;;537.80;2406.40;;;;;;5029838;28;20031;-78
2023/06/20 03:43:17;;;;;;;16.45;13.10;;;537.80;2406.40;;;;;;5033969;28;20025;-79
2023/06/20 03:45:43;;;;;;;16.17;13.82;;;537.90;2406.40;;;;;;5034068;28;20298;-78
2023/06/20 03:48:08;;;;;;;16.10;12.70;;;537.90;2406.40;;;;;;5032527;28;20022;-79
2023/06/20 03:50:34;;;;;;;14.70;12.30;;;537.90;2406.40;;;;;;5033776;28;20056;-79
2023/06/20 03:53:00;;;;;;;16.50;12.95;;;538.00;2406.40;;;;;;5033806;28;20112;-77
2023/06/20 03:55:25;;;;;;;20.60;13.68;;;538.10;2406.40;;;;;;5029940;28;20455;-78
2023/06/20 03:57:51;;;;;;;21.17;14.57;;;538.10;2406.40;;;;;;5041029;28;20028;-79
2023/06/20 04:00:17;;;;;;;22.10;14.18;;;538.10;2406.40;;;;;;5040394;28;20382;-77
2023/06/20 04:02:44;;;;;;;21.63;14.75;;;538.20;2406.40;;;;;;5051997;28;20025;-79
2023/06/20 04:05:10;;;;;;;20.38;14.13;;;538.20;2406.40;;;;;;5051780;28;20029;-78
2023/06/20 04:07:36;;;;;;;19.77;14.75;;;538.30;2406.40;;;;;;5052283;28;20017;-78
2023/06/20 04:10:02;;;;;;;21.40;14.75;;;538.30;2406.40;;;;;;5052396;28;20036;-77
2023/06/20 04:12:28;;;;;;;19.48;14.68;;;538.30;2406.40;;;;;;5034940;28;20038;-77
2023/06/20 04:14:54;;;;;;;19.38;13.68;;;538.40;2406.40;;;;;;5030886;28;20104;-78
2023/06/20 04:17:20;;;;;;;17.10;13.40;;;;;;;;;;5032986;28;20487;-77
2023/06/20 04:19:47;;;;;;;18.70;13.82;;;;;;;;;;5034519;28;20116;-78
2023/06/20 04:22:14;;;;;;;19.77;14.02;;;;;;;;;;5023507;28;20037;-78
2023/06/20 04:24:40;;;;;;;18.60;13.57;;;;;;;;;;5033063;28;20443;-79
2023/06/20 04:27:06;;;;;;;17.88;13.45;;;;;;;;;;5033713;28;20029;-78
2023/06/20 04:29:32;;;;;;;16.13;13.13;;;563.80;2432.00;;;;;;5033570;28;20087;-79
2023/06/20 04:31:58;;;;;;;17.63;13.70;;;563.60;2432.00;;;;;;5033284;28;20068;-79
2023/06/20 04:34:23;;;;;;;19.33;13.05;;;563.70;2432.00;;;;;;5053232;28;20114;-78
2023/06/20 04:36:52;;;;;;;19.38;12.77;;;563.80;2432.00;;;;;;5046665;28;20021;-79
2023/06/20 04:39:18;;;;;;;18.75;12.65;;;564.10;2432.00;;;;;;5033748;28;20079;-77
2023/06/20 04:41:44;;;;;;;16.20;13.10;;;564.00;2432.00;;;;;;5032993;28;20420;-78
2023/06/20 04:44:10;;;;;;;15.77;12.20;;;564.00;2432.00;;;;;;5026626;28;20045;-78
2023/06/20 04:46:35;;;;;;;13.95;11.52;;;564.10;2432.00;;;;;;5013665;28;20478;-79
2023/06/20 04:49:01;;;;;;;14.80;12.55;;;588.80;2432.00;;;;;;5013477;28;20030;-78
2023/06/20 04:51:27;;;;;;;14.75;12.07;;;589.20;2432.00;;;;;;5013467;28;20038;-77
2023/06/20 04:53:52;;;;;;;15.10;12.30;;;589.00;2432.00;;;;;;5013479;28;20097;-78
2023/06/20 04:56:19;;;;;;;15.65;11.93;;;589.00;2432.00;;;;;;5013609;28;20022;-77
2023/06/20 04:58:46;;;;;;;18.02;14.00;;;589.10;2432.00;;;;;;5013670;28;20515;-78
2023/06/20 05:01:15;;;;;;;20.05;13.02;;;589.30;2432.00;;;;;;5010587;28;20088;-79
2023/06/20 05:03:43;;;;;;;16.35;12.90;;;;;;;;;;5022266;28;20029;-78
2023/06/20 05:06:09;;;;;;;14.38;11.82;;;589.70;2432.00;;;;;;5031822;28;20446;-78
2023/06/20 05:08:35;;;;;;;13.88;11.27;;;589.50;2432.00;;;;;;5012932;28;20459;-79
2023/06/20 05:11:01;;;;;;;15.43;11.00;;;;;;;;;;5013259;28;20041;-79
2023/06/20 05:13:27;;;;;;;13.10;11.15;;;;;;;;;;5012890;28;20049;-79
2023/06/20 05:15:53;;;;;;;15.45;11.13;;;;;;;;;;5020468;28;20017;-79
2023/06/20 05:18:19;;;;;;;12.43;10.65;;;;;;;;;;5031200;28;20046;-77
2023/06/20 05:20:45;;;;;;;16.08;11.38;;;614.80;2432.00;;;;;;5064862;28;20816;-77
2023/06/20 05:23:11;;;;;;;15.25;11.57;;;;;;;;;;5032915;28;20036;-78
2023/06/20 05:25:37;;;;;;;13.05;11.20;;;;;;;;;;5022951;28;20123;-77
2023/06/20 05:28:03;;;;;;;15.55;11.57;;;;;;;;;;5032407;28;20028;-78
2023/06/20 05:30:29;;;;;;;13.00;11.27;;;615.00;2432.00;;;;;;5028826;28;20030;-77
2023/06/20 05:32:55;;;;;;;14.85;11.35;;;;;;;;;;5030351;28;20030;-79
2023/06/20 05:35:21;;;;;;;16.63;12.07;;;;;;;;;;5026554;28;20017;-78
2023/06/20 05:37:49;;;;;;;13.43;11.27;;;;;;;;;;5031030;28;20037;-79
2023/06/20 05:40:15;;;;;;;13.18;10.77;;;;;;;;;;5031057;28;20113;-80
2023/06/20 05:42:41;;;;;;;12.90;10.73;;;;;;;;;;5032356;28;20025;-77
2023/06/20 05:45:08;;;;;;;13.00;10.85;;;;;;;;;;5032122;28;20017;-79
2023/06/20 05:47:34;;;;;;;12.77;10.45;;;;;;;;;;5032415;28;20037;-77
2023/06/20 05:50:00;;;;;;;13.85;11.18;;;640.30;2432.00;;;;;;5020592;28;20064;-79
2023/06/20 05:52:25;;;;;;;13.55;10.90;;;640.40;2432.00;;;;;;5010341;28;20045;-77
2023/06/20 05:54:53;;;;;;;14.80;10.43;;;640.10;2432.00;;;;;;5027035;28;20021;-79
2023/06/20 05:57:20;;;;;;;11.80;9.85;;;;;;;;;;5029996;28;20029;-77
2023/06/20 05:59:46;;;;;;;14.85;10.55;;;;;;;;;;5029885;28;20025;-78
2023/06/20 06:02:12;;;;;;;12.73;10.48;;;640.70;2432.00;;;;;;5031869;28;20395;-77
2023/06/20 06:04:38;;;;;;;13.02;10.68;;;640.50;2432.00;;;;;;5030538;28;20022;-77
2023/06/20 06:07:07;;;;;;;12.48;10.00;;;;;;;;;;5031580;28;20034;-78
2023/06/20 06:09:33;;;;;;;15.18;11.60;;;;;;;;;;5019818;28;20482;-78
2023/06/20 06:11:59;;;;;;;12.82;10.25;;;;;;;;;;5031378;28;20095;-77
2023/06/20 06:14:25;;;;;;;13.57;10.35;;;;;;;;;;5031011;28;20486;-77
2023/06/20 06:16:51;;;;;;;12.98;10.38;;;;;;;;;;5044808;28;20043;-77
2023/06/20 06:19:19;;;;;;;12.63;10.32;;;;;;;;;;5016731;28;20467;-77
2023/06/20 06:21:47;;;;;;;13.23;9.82;;;;;;;;;;5051761;28;20484;-79
2023/06/20 06:24:13;;;;;;;12.63;9.60;;;;;;;;;;5052146;28;20383;-79
2023/06/20 06:26:39;;;;;;;13.55;9.77;;;;;;;;;;5052153;28;20021;-77
2023/06/20 06:29:05;;;;;;;12.15;10.32;;;;;;;;;;5054003;28;20029;-78
2023/06/20 06:31:33;;;;;;;11.65;9.98;;;;;;;;;;5045605;28;20034;-77
2023/06/20 06:34:00;;;;;;;15.07;9.30;;;;;;;;;;5015880;28;20523;-78
2023/06/20 06:36:26;;;;;;;13.00;10.07;;;;;;;;;;5021825;28;20037;-78
2023/06/20 06:38:53;;;;;;;14.90;9.77;;;;;;;;;;5068062;28;20033;-77
2023/06/20 06:41:19;;;;;;;17.80;11.60;;;;;;;;;;5035641;28;20038;-76
2023/06/20 06:43:45;;;;;;;14.23;10.07;;;;;;;;;;5035283;28;20108;-76
2023/06/20 06:46:11;;;;;;;12.18;9.63;;;;;;;;;;5035751;28;20374;-76
2023/06/20 06:48:37;;;;;;;11.18;9.57;;;;;;;;;;5029866;28;20026;-78
2023/06/20 06:51:04;;;;;;;11.00;9.32;;;;;;;;;;5015279;28;20037;-79
2023/06/20 06:53:30;;;;;;;12.65;9.95;;;;;;;;;;5015799;28;20132;-78
2023/06/20 06:55:56;;;;;;;13.85;10.07;;;;;;;;;;5021209;28;20064;-79
2023/06/20 06:58:21;;;;;;;11.85;9.73;;;716.80;2432.00;;;;;;5034479;28;20040;-78
2023/06/20 07:00:47;;;;;;;12.13;9.88;;;692.10;2432.00;;;;;;5034966;28;20021;-76
2023/06/20 07:03:15;;;;;;;12.07;9.80;;;692.00;2432.00;;;;;;5035342;28;20656;-76
2023/06/20 07:05:41;;;;;;;12.68;9.60;;;716.80;2432.00;;;;;;5035094;28;20033;-76
2023/06/20 07:08:06;;;;;;;11.43;9.50;;;716.80;2432.00;;;;;;5035600;28;20100;-76
2023/06/20 07:10:32;;;;;;;11.23;9.70;;;717.00;2432.00;;;;;;5035097;28;20421;-75
2023/06/20 07:12:58;;;;;;;13.32;9.00;;;717.00;2432.00;;;;;;5034792;28;20037;-75
2023/06/20 07:15:24;;;;;;;9.75;8.75;;;717.00;2432.00;;;;;;5035228;28;20021;-76
2023/06/20 07:17:49;;;;;;;11.23;9.93;;;717.10;2432.00;;;;;;5029068;28;20046;-76
2023/06/20 07:20:17;;;;;;;11.75;9.40;;;717.20;2432.00;;;;;;5017095;28;20065;-78
2023/06/20 07:22:44;;;;;;;9.90;8.85;;;717.40;2432.00;;;;;;5015027;28;20041;-78
2023/06/20 07:25:11;;;;;;;11.32;8.68;;;742.40;2432.00;;;;;;5015135;28;20037;-79
2023/06/20 07:27:37;;;;;;;9.40;8.13;;;717.60;2355.20;;;;;;5019835;28;20438;-78
2023/06/20 07:30:03;;;;;;;8.80;7.90;;;742.40;2355.20;;;;;;5034154;28;20036;-78
2023/06/20 07:32:29;;;;;;;10.00;8.27;;;742.50;2252.80;;;;;;5046790;28;20069;-76
2023/06/20 07:34:54;;;;;;;9.23;7.70;;;742.70;2201.60;;;;;;5037065;28;20095;-76
2023/06/20 07:37:20;;;;;;;11.00;8.02;;;742.80;2227.20;;;;;;5028018;28;20026;-79
2023/06/20 07:39:46;;;;;;;10.75;7.95;;;742.80;2252.80;;;;;;5022240;28;20033;-76
2023/06/20 07:42:13;;;;;;;10.43;8.30;;;743.10;2201.60;;;;;;5034518;28;20033;-77
2023/06/20 07:44:39;;;;;;;12.95;8.20;;;742.90;2252.80;;;;;;5034518;28;20108;-77
2023/06/20 07:47:05;;;;;;;12.02;8.35;;;768.10;2227.20;;;;;;5031116;28;20815;-77
2023/06/20 07:49:31;;;;;;;9.82;7.65;;;743.20;2201.60;;;;;;5048867;28;20029;-79
2023/06/20 07:51:57;;;;;;;10.93;8.13;;;768.00;2099.20;;;;;;5034758;28;20042;-77
2023/06/20 07:54:23;;;;;;;12.80;8.52;;;768.00;2150.40;;;;;;5034273;28;20022;-77
2023/06/20 07:56:49;;;;;;;11.85;8.02;;;;;;;;;;5034201;28;20021;-77
2023/06/20 07:59:14;;;;;;;11.82;8.15;;;793.60;2099.20;;;;;;5033903;28;20095;-77
2023/06/20 08:01:40;;;;;;;11.95;7.80;;;768.90;2099.20;;;;;;5034144;28;20460;-77
2023/06/20 08:04:06;;;;;;;10.43;7.88;;;793.70;2073.60;;;;;;5032926;28;20021;-78
2023/06/20 08:06:32;;;;;;;8.90;7.75;;;;;;;;;;5019850;28;20029;-77
2023/06/20 08:08:58;;;;;;;9.93;7.95;;;794.20;2124.80;;;;;;5033989;28;20026;-76
2023/06/20 08:11:24;;;;;;;9.00;8.10;;;794.40;2073.60;;;;;;5033656;28;20064;-78
2023/06/20 08:13:50;;;;;;;9.75;8.10;;;794.40;2048.00;;;;;;5031677;28;20033;-81
2023/06/20 08:16:16;;;;;;;9.07;8.13;;;;;;;;;;5029134;28;20483;-78
2023/06/20 08:18:42;;;;;;;9.70;7.50;;;819.20;2048.00;;;;;;5031990;28;20506;-81
2023/06/20 08:21:08;;;;;;;9.65;7.35;;;794.50;2048.00;;;;;;5030189;28;20038;-78
2023/06/20 08:23:34;;;;;;;10.63;8.05;;;;;;;;;;5028559;28;20029;-83
2023/06/20 08:26:00;;;;;;;11.35;8.02;;;;;;;;;;5025660;28;20454;-81
2023/06/20 08:28:27;;;;;;;9.38;7.47;;;;;;;;;;5023748;28;20120;-82
2023/06/20 08:30:53;;;;;;;10.82;7.50;;;;;;;;;;5033335;28;20171;-84
2023/06/20 08:33:19;;;;;;;10.30;7.72;;;819.70;1945.60;;;;;;5052265;28;20021;-81
2023/06/20 08:35:46;;;;;;;10.93;7.90;;;819.70;1945.60;;;;;;5053136;28;20040;-82
2023/06/20 08:38:13;;;;;;;9.95;7.55;;;819.90;1971.20;;;;;;5032818;28;20029;-81
2023/06/20 08:40:39;;;;;;;9.27;7.50;;;820.10;1843.20;;;;;;5016742;28;20037;-81
2023/06/20 08:43:05;;;;;;;10.77;7.47;;;820.00;1843.20;;;;;;5012245;28;20033;-79
2023/06/20 08:45:32;;;;;;;10.65;8.32;;;;;;;;;;5013005;28;20482;-78
2023/06/20 08:47:58;;;;;;;12.45;7.30;;;845.10;1817.60;;;;;;5015506;28;20032;-80
2023/06/20 08:50:28;;;;;;;7.80;7.00;;;845.20;1792.00;;;;;;5028325;28;20153;-80
2023/06/20 08:52:59;;;;;;;8.15;6.90;;;845.00;1792.00;;;;;;5028882;28;20042;-82
2023/06/20 08:55:26;;;;;;;10.52;7.00;;;845.10;1792.00;;;;;;5032124;28;20026;-79
2023/06/20 08:58:05;;;;;;;12.60;7.18;;;845.20;1766.40;;;;;;5014607;28;20034;-82
2023/06/20 09:00:31;;;;;;;9.13;7.10;;;844.90;1792.00;;;;;;5020463;28;20029;-79
2023/06/20 09:02:57;;;;;;;11.85;6.90;;;845.30;1766.40;;;;;;5043578;28;20040;-79
2023/06/20 09:05:23;;;;;;;10.63;7.10;;;845.20;1766.40;;;;;;5041176;28;20030;-80
2023/06/20 09:07:51;;;;;;;9.02;7.05;;;845.30;1715.20;;;;;;5040617;28;20056;-81
2023/06/20 09:10:23;;;;;;;8.88;7.30;;;845.60;1715.20;;;;;;5042347;28;20024;-83
2023/06/20 09:12:56;;;;;;;8.18;6.63;;;870.50;1689.60;;;;;;5030259;28;20069;-80
2023/06/20 09:15:25;;;;;;;9.43;7.03;;;870.40;1689.60;;;;;;5029853;28;20029;-80
2023/06/20 09:17:52;;;;;;;7.57;6.38;;;870.60;1664.00;;;;;;5050940;28;20094;-80
2023/06/20 09:20:18;;;;;;;7.30;6.55;;;870.60;1561.60;;;;;;5051977;28;20104;-82
2023/06/20 09:22:44;;;;;;;8.57;7.03;;;870.60;1587.20;;;;;;5034151;28;20116;-80
2023/06/20 09:25:11;;;;;;;11.05;7.03;;;870.40;1587.20;;;;;;5013310;28;20105;-80
2023/06/20 09:27:41;;;;;;;8.68;6.93;;;870.50;1587.20;;;;;;5031658;28;20116;-79
2023/06/20 09:30:08;;;;;;;8.68;6.75;;;870.60;1587.20;;;;;;5031514;28;20037;-79
2023/06/20 09:32:40;;;;;;;7.57;6.65;;;870.70;1612.80;;;;;;5025895;28;20049;-81
2023/06/20 09:35:11;;;;;;;8.18;6.82;;;870.90;1587.20;;;;;;5031932;28;20044;-79
2023/06/20 09:37:47;;;;;;;7.53;6.72;;;;;;;;;;5030463;28;20032;-79
2023/06/20 09:40:18;;;;;;;9.10;7.40;;;871.20;1587.20;;;;;;5074308;28;20414;-76
2023/06/20 09:42:45;;;;;;;7.60;6.80;;;871.00;1587.20;;;;;;5052161;28;20493;-79
2023/06/20 09:45:13;;;;;;;8.45;7.00;;;871.00;1536.00;;;;;;5052361;28;20043;-79
2023/06/20 09:47:40;;;;;;;7.60;6.88;;;845.70;1561.60;;;;;;5051041;28;20912;-77
2023/06/20 09:50:19;;;;;;;7.68;6.60;;;845.20;1612.80;;;;;;5026788;28;20113;-80
2023/06/20 09:53:09;;;;;;;8.55;7.32;;;870.40;1612.80;;;;;;5033775;28;20068;-77
2023/06/20 09:55:37;;;;;;;10.75;7.00;;;870.40;1612.80;;;;;;5016363;28;20137;-77
2023/06/20 09:58:04;;;;;;;9.27;6.50;;;870.90;1561.60;;;;;;5031545;28;20033;-76
2023/06/20 10:00:31;;;;;;;9.88;6.85;;;871.20;1536.00;;;;;;5027818;28;20026;-81
2023/06/20 10:03:04;;;;;;;7.97;6.65;;;896.30;1510.40;;;;;;5030644;28;20038;-78
2023/06/20 10:05:33;;;;;;;7.63;6.53;;;871.20;1484.80;;;;;;5030194;28;20455;-76
2023/06/20 10:07:59;;;;;;;8.27;6.60;;;896.40;1433.60;;;;;;5032679;28;20041;-78
2023/06/20 10:10:26;;;;;;;7.47;6.68;;;896.50;1484.80;;;;;;5038393;28;20044;-78
2023/06/20 10:12:52;;;;;;;8.75;7.30;;;896.00;1459.20;;;;;;5039018;28;20399;-79
2023/06/20 10:15:20;;;;;;;8.25;6.28;;;871.30;1459.20;;;;;;5035877;28;20108;-76
2023/06/20 10:17:47;;;;;;;7.38;6.68;;;870.80;1484.80;;;;;;5032682;28;20050;-78
2023/06/20 10:20:27;;;;;;;9.27;7.30;;;845.40;1536.00;;;;;;5029566;28;20033;-77
2023/06/20 10:23:03;;;;;;;8.07;6.80;;;845.60;1561.60;;;;;;5031543;28;20038;-76
2023/06/20 10:25:29;;;;;;;7.78;6.57;;;870.80;1510.40;;;;;;5027644;28;20049;-76
2023/06/20 10:28:02;;;;;;;8.75;7.55;;;871.10;1433.60;;;;;;5011937;28;20073;-77
2023/06/20 10:31:23;;;;;;;8.77;6.78;;;871.30;1433.60;;;;;;5013464;28;20360;-77
2023/06/20 10:33:49;;;;;;;8.82;6.55;;;896.40;1433.60;;;;;;5021224;28;20041;-77
2023/06/20 10:36:17;;;;;;;8.95;6.65;;;896.00;1382.40;;;;;;5019569;28;20030;-76
2023/06/20 10:38:51;;;;;;;8.55;6.65;;;871.20;1433.60;;;;;;5012463;28;20029;-79
2023/06/20 10:41:27;;;;;;;8.20;6.70;;;871.00;1408.00;;;;;;5010880;28;20033;-77
2023/06/20 10:43:58;;;;;;;8.27;6.70;;;870.50;1433.60;;;;;;5011349;28;20068;-78
2023/06/20 10:46:36;;;;;;;7.97;6.80;;;870.80;1459.20;;;;;;5012631;28;20034;-79
2023/06/20 10:49:06;;;;;;;7.47;6.50;;;870.40;1459.20;;;;;;5017974;28;20033;-78
2023/06/20 10:51:46;;;;;;;7.68;6.78;;;870.60;1459.20;;;;;;5028927;28;20038;-76
2023/06/20 10:54:13;;;;;;;7.70;6.25;;;870.80;1459.20;;;;;;5022218;28;20030;-77
2023/06/20 10:56:39;;;;;;;10.48;6.57;;;871.00;1459.20;;;;;;5033231;28;20037;-77
2023/06/20 10:59:12;;;;;;;7.50;6.30;;;871.00;1433.60;;;;;;5038851;28;20040;-76
2023/06/20 11:01:38;;;;;;;7.15;6.30;;;871.20;1459.20;;;;;;5038981;28;20032;-77
2023/06/20 11:04:11;;;;;;;10.18;6.32;;;871.20;1408.00;;;;;;5037315;28;20033;-81
2023/06/20 11:06:37;;;;;;;7.95;6.88;;;871.00;1408.00;;;;;;5031723;28;20085;-82
2023/06/20 11:09:03;;;;;;;7.38;5.95;;;871.00;1433.60;;;;;;5042516;28;20380;-79
2023/06/20 11:11:37;;;;;;;8.32;6.40;;;871.00;1408.00;;;;;;5043822;28;20072;-79
2023/06/20 11:14:18;;;;;;;7.32;6.45;;;870.90;1408.00;;;;;;5041803;28;20029;-79
2023/06/20 11:16:44;;;;;;;8.32;6.60;;;870.80;1408.00;;;;;;5045496;28;20537;-79
2023/06/20 11:19:10;;;;;;;7.95;6.60;;;871.20;1433.60;;;;;;5033774;28;20033;-77
2023/06/20 11:21:37;;;;;;;9.35;6.10;;;896.20;1356.80;;;;;;5029249;28;20522;-77
2023/06/20 11:24:04;;;;;;;10.15;6.20;;;871.20;1408.00;;;;;;5039811;28;20037;-78
2023/06/20 11:26:30;;;;;;;6.93;6.18;;;871.10;1408.00;;;;;;5037085;28;20030;-79
2023/06/20 11:29:08;;;;;;;6.78;6.18;;;871.00;1408.00;;;;;;5045055;28;20032;-78
2023/06/20 11:31:34;;;;;;;7.78;6.25;;;870.90;1382.40;;;;;;5048388;28;20434;-78
2023/06/20 11:34:14;;;;;;;8.02;6.28;;;870.90;1382.40;;;;;;5048577;28;20028;-79
2023/06/20 11:36:40;;;;;;;7.55;6.10;;;871.10;1382.40;;;;;;5047680;28;20060;-81
2023/06/20 11:39:14;;;;;;;8.50;6.13;;;871.10;1382.40;;;;;;5042091;28;20032;-79
2023/06/20 11:41:40;;;;;;;7.07;5.87;;;896.00;1356.80;;;;;;5037305;28;20034;-78
2023/06/20 11:44:24;;;;;;;6.78;5.78;;;871.20;1356.80;;;;;;5035464;28;20277;-80
2023/06/20 11:46:49;;;;;;;10.23;6.07;;;896.50;1356.80;;;;;;5034988;28;20037;-77
2023/06/20 11:49:32;;;;;;;6.82;5.60;;;896.60;1305.60;;;;;;5034719;28;20040;-80
2023/06/20 11:51:58;;;;;;;6.95;5.72;;;896.30;1280.00;;;;;;5034531;28;20047;-77
2023/06/20 11:54:24;;;;;;;7.60;5.97;;;896.20;1280.00;;;;;;5039893;28;20021;-77
2023/06/20 11:56:54;;;;;;;6.00;5.13;;;896.80;1228.80;;;;;;5039920;28;20410;-77
2023/06/20 11:59:23;;;;;;;6.18;5.40;;;896.60;1228.80;;;;;;5042445;28;20056;-79
2023/06/20 12:01:49;;;;;;;8.95;5.57;;;896.40;1254.40;;;;;;5034830;28;20044;-80
2023/06/20 12:04:19;;;;;;;6.72;5.82;;;896.30;1203.20;;;;;;5052453;28;20021;-78
2023/06/20 12:06:48;;;;;;;5.68;5.05;;;871.30;1203.20;;;;;;5055908;28;20029;-79
2023/06/20 12:09:18;;;;;;;5.28;4.78;;;871.20;1177.60;;;;;;5044463;28;20056;-77
2023/06/20 12:11:47;;;;;;;6.40;4.97;;;871.30;1177.60;;;;;;5033046;28;20094;-77
2023/06/20 12:14:16;;;;;;;6.35;4.78;;;896.00;1100.80;;;;;;5032073;28;20358;-78
2023/06/20 12:16:42;;;;;;;6.75;5.57;;;871.20;1126.40;;;;;;5033601;28;20068;-80
2023/06/20 12:19:08;;;;;;;7.05;4.85;;;871.00;1203.20;;;;;;5032742;28;20033;-78
2023/06/20 12:21:38;;;;;;;6.82;5.50;;;871.10;1177.60;;;;;;5025571;28;20033;-79
2023/06/20 12:24:05;;;;;;;8.85;5.63;;;896.00;1228.80;;;;;;5031805;28;20045;-78
2023/06/20 12:26:31;;;;;;;5.88;4.80;;;896.20;1228.80;;;;;;5029817;28;20056;-78
2023/06/20 12:28:57;;;;;;;7.35;4.53;;;896.40;1126.40;;;;;;5027932;28;20030;-79
2023/06/20 12:31:24;;;;;;;5.78;4.90;;;896.70;1100.80;;;;;;5026377;28;20041;-78
2023/06/20 12:33:50;;;;;;;6.18;4.90;;;896.80;1049.60;;;;;;5031395;28;20099;-80
2023/06/20 12:36:16;;;;;;;5.50;4.45;;;871.20;1100.80;;;;;;5016508;28;20030;-79
2023/06/20 12:38:42;;;;;;;6.65;5.00;;;871.30;1075.20;;;;;;5032043;28;20033;-81
2023/06/20 12:41:09;;;;;;;6.03;4.90;;;896.00;1075.20;;;;;;5030423;28;20483;-80
2023/06/20 12:43:35;;;;;;;5.85;4.65;;;871.20;1100.80;;;;;;5033238;28;20033;-77
2023/06/20 12:46:01;;;;;;;7.68;5.00;;;896.10;1049.60;;;;;;5031647;28;20478;-79